sensor_id;sensor_type;location;lat;lon;timestamp;P1;durP1;ratioP1;P2;durP2;ratioP2
16832;SDS011;8533;48.426;10.868;2022-07-22T00:01:58;12.37;;;8.63;;
16832;SDS011;8533;48.426;10.868;2022-07-22T00:04:25;16.03;;;9.57;;
16832;SDS011;8533;48.426;10.868;2022-07-22T00:06:53;12.40;;;9.17;;
16832;SDS011;8533;48.426;10.868;2022-07-22T00:09:20;14.77;;;9.87;;
16832;SDS011;8533;48.426;10.868;2022-07-22T00:11:48;12.60;;;9.20;;
16832;SDS011;8533;48.426;10.868;2022-07-22T00:14:15;16.70;;;8.67;;
16832;SDS011;8533;48.426;10.868;2022-07-22T00:16:43;13.27;;;8.63;;
16832;SDS011;8533;48.426;10.868;2022-07-22T00:19:10;13.67;;;8.53;;
16832;SDS011;8533;48.426;10.868;2022-07-22T00:21:38;11.50;;;8.43;;
16832;SDS011;8533;48.426;10.868;2022-07-22T00:24:05;11.33;;;8.50;;
16832;SDS011;8533;48.426;10.868;2022-07-22T00:26:33;10.07;;;7.17;;
16832;SDS011;8533;48.426;10.868;2022-07-22T00:29:00;12.13;;;8.30;;
16832;SDS011;8533;48.426;10.868;2022-07-22T00:31:28;12.40;;;7.77;;
16832;SDS011;8533;48.426;10.868;2022-07-22T00:33:56;11.63;;;7.77;;
16832;SDS011;8533;48.426;10.868;2022-07-22T00:36:27;10.80;;;7.80;;
16832;SDS011;8533;48.426;10.868;2022-07-22T00:38:55;10.83;;;7.50;;
16832;SDS011;8533;48.426;10.868;2022-07-22T00:41:23;11.57;;;8.10;;
16832;SDS011;8533;48.426;10.868;2022-07-22T00:43:51;11.23;;;7.83;;
16832;SDS011;8533;48.426;10.868;2022-07-22T00:48:54;15.07;;;8.17;;
16832;SDS011;8533;48.426;10.868;2022-07-22T00:51:22;11.77;;;8.27;;
16832;SDS011;8533;48.426;10.868;2022-07-22T00:53:51;11.67;;;7.87;;
16832;SDS011;8533;48.426;10.868;2022-07-22T00:56:20;10.13;;;7.47;;
16832;SDS011;8533;48.426;10.868;2022-07-22T00:58:48;10.70;;;7.73;;
16832;SDS011;8533;48.426;10.868;2022-07-22T01:01:17;13.13;;;8.77;;
16832;SDS011;8533;48.426;10.868;2022-07-22T01:03:45;11.23;;;7.67;;
16832;SDS011;8533;48.426;10.868;2022-07-22T01:06:12;12.27;;;8.33;;
16832;SDS011;8533;48.426;10.868;2022-07-22T01:08:40;11.60;;;8.10;;
16832;SDS011;8533;48.426;10.868;2022-07-22T01:11:09;10.00;;;7.33;;
16832;SDS011;8533;48.426;10.868;2022-07-22T01:13:37;13.20;;;8.43;;
16832;SDS011;8533;48.426;10.868;2022-07-22T01:16:06;11.10;;;7.73;;
16832;SDS011;8533;48.426;10.868;2022-07-22T01:18:35;12.30;;;8.13;;
16832;SDS011;8533;48.426;10.868;2022-07-22T01:21:04;12.67;;;7.90;;
16832;SDS011;8533;48.426;10.868;2022-07-22T01:23:33;13.50;;;8.57;;
16832;SDS011;8533;48.426;10.868;2022-07-22T01:26:01;9.20;;;7.07;;
16832;SDS011;8533;48.426;10.868;2022-07-22T01:28:30;13.53;;;8.23;;
16832;SDS011;8533;48.426;10.868;2022-07-22T01:30:58;16.37;;;8.63;;
16832;SDS011;8533;48.426;10.868;2022-07-22T01:33:26;12.87;;;8.03;;
16832;SDS011;8533;48.426;10.868;2022-07-22T01:35:54;10.17;;;8.20;;
16832;SDS011;8533;48.426;10.868;2022-07-22T01:38:21;10.57;;;7.47;;
16832;SDS011;8533;48.426;10.868;2022-07-22T01:40:49;12.33;;;8.60;;
16832;SDS011;8533;48.426;10.868;2022-07-22T01:43:17;14.10;;;8.83;;
16832;SDS011;8533;48.426;10.868;2022-07-22T01:45:47;11.97;;;8.50;;
16832;SDS011;8533;48.426;10.868;2022-07-22T01:48:17;12.23;;;8.17;;
16832;SDS011;8533;48.426;10.868;2022-07-22T01:50:45;12.30;;;8.70;;
16832;SDS011;8533;48.426;10.868;2022-07-22T01:53:13;11.50;;;8.10;;
16832;SDS011;8533;48.426;10.868;2022-07-22T01:55:41;11.03;;;8.13;;
16832;SDS011;8533;48.426;10.868;2022-07-22T01:58:09;12.73;;;8.33;;
16832;SDS011;8533;48.426;10.868;2022-07-22T02:00:36;14.50;;;8.40;;
16832;SDS011;8533;48.426;10.868;2022-07-22T02:03:04;9.13;;;7.43;;
16832;SDS011;8533;48.426;10.868;2022-07-22T02:05:32;11.90;;;8.33;;
16832;SDS011;8533;48.426;10.868;2022-07-22T02:08:01;11.60;;;8.03;;
16832;SDS011;8533;48.426;10.868;2022-07-22T02:10:33;13.10;;;8.70;;
16832;SDS011;8533;48.426;10.868;2022-07-22T02:13:01;11.27;;;8.40;;
16832;SDS011;8533;48.426;10.868;2022-07-22T02:15:30;11.93;;;8.20;;
16832;SDS011;8533;48.426;10.868;2022-07-22T02:17:58;13.43;;;8.37;;
16832;SDS011;8533;48.426;10.868;2022-07-22T02:20:26;11.03;;;7.93;;
16832;SDS011;8533;48.426;10.868;2022-07-22T02:22:53;10.43;;;7.70;;
16832;SDS011;8533;48.426;10.868;2022-07-22T02:25:20;13.40;;;8.50;;
16832;SDS011;8533;48.426;10.868;2022-07-22T02:27:48;13.03;;;8.97;;
16832;SDS011;8533;48.426;10.868;2022-07-22T02:30:15;12.03;;;8.23;;
16832;SDS011;8533;48.426;10.868;2022-07-22T02:32:43;11.50;;;8.47;;
16832;SDS011;8533;48.426;10.868;2022-07-22T02:35:10;13.17;;;8.67;;
16832;SDS011;8533;48.426;10.868;2022-07-22T02:37:38;11.43;;;8.07;;
16832;SDS011;8533;48.426;10.868;2022-07-22T02:40:05;11.37;;;8.33;;
16832;SDS011;8533;48.426;10.868;2022-07-22T02:42:33;13.20;;;8.40;;
16832;SDS011;8533;48.426;10.868;2022-07-22T02:45:01;11.47;;;8.23;;
16832;SDS011;8533;48.426;10.868;2022-07-22T02:47:30;10.90;;;7.97;;
16832;SDS011;8533;48.426;10.868;2022-07-22T02:49:57;11.50;;;7.90;;
16832;SDS011;8533;48.426;10.868;2022-07-22T02:52:25;15.03;;;8.97;;
16832;SDS011;8533;48.426;10.868;2022-07-22T02:54:52;14.90;;;9.23;;
16832;SDS011;8533;48.426;10.868;2022-07-22T02:57:19;11.27;;;8.13;;
16832;SDS011;8533;48.426;10.868;2022-07-22T02:59:47;14.37;;;8.17;;
16832;SDS011;8533;48.426;10.868;2022-07-22T03:02:15;12.80;;;8.20;;
16832;SDS011;8533;48.426;10.868;2022-07-22T03:04:43;17.67;;;10.17;;
16832;SDS011;8533;48.426;10.868;2022-07-22T03:07:10;12.13;;;8.87;;
16832;SDS011;8533;48.426;10.868;2022-07-22T03:09:38;13.03;;;8.30;;
16832;SDS011;8533;48.426;10.868;2022-07-22T03:12:05;12.63;;;8.63;;
16832;SDS011;8533;48.426;10.868;2022-07-22T03:14:33;15.27;;;9.20;;
16832;SDS011;8533;48.426;10.868;2022-07-22T03:17:00;11.07;;;7.90;;
16832;SDS011;8533;48.426;10.868;2022-07-22T03:19:28;12.77;;;8.90;;
16832;SDS011;8533;48.426;10.868;2022-07-22T03:21:55;11.80;;;8.30;;
16832;SDS011;8533;48.426;10.868;2022-07-22T03:24:23;11.53;;;8.40;;
16832;SDS011;8533;48.426;10.868;2022-07-22T03:26:50;12.33;;;8.03;;
16832;SDS011;8533;48.426;10.868;2022-07-22T03:29:18;13.13;;;8.37;;
16832;SDS011;8533;48.426;10.868;2022-07-22T03:31:45;14.13;;;8.87;;
16832;SDS011;8533;48.426;10.868;2022-07-22T03:34:13;13.40;;;9.33;;
16832;SDS011;8533;48.426;10.868;2022-07-22T03:36:40;15.47;;;9.17;;
16832;SDS011;8533;48.426;10.868;2022-07-22T03:39:07;12.30;;;9.03;;
16832;SDS011;8533;48.426;10.868;2022-07-22T03:41:35;13.67;;;9.53;;
16832;SDS011;8533;48.426;10.868;2022-07-22T03:44:02;12.83;;;8.93;;
16832;SDS011;8533;48.426;10.868;2022-07-22T03:46:31;11.77;;;8.23;;
16832;SDS011;8533;48.426;10.868;2022-07-22T03:48:58;12.00;;;8.10;;
16832;SDS011;8533;48.426;10.868;2022-07-22T03:51:26;13.07;;;9.07;;
16832;SDS011;8533;48.426;10.868;2022-07-22T03:53:54;14.10;;;9.20;;
16832;SDS011;8533;48.426;10.868;2022-07-22T03:56:21;13.37;;;9.07;;
16832;SDS011;8533;48.426;10.868;2022-07-22T03:58:49;12.63;;;8.93;;
16832;SDS011;8533;48.426;10.868;2022-07-22T04:01:16;15.17;;;9.30;;
16832;SDS011;8533;48.426;10.868;2022-07-22T04:03:44;13.20;;;8.37;;
16832;SDS011;8533;48.426;10.868;2022-07-22T04:06:11;13.13;;;8.93;;
16832;SDS011;8533;48.426;10.868;2022-07-22T04:08:39;11.40;;;8.10;;
16832;SDS011;8533;48.426;10.868;2022-07-22T04:11:06;10.43;;;7.40;;
16832;SDS011;8533;48.426;10.868;2022-07-22T04:13:33;12.67;;;8.80;;
16832;SDS011;8533;48.426;10.868;2022-07-22T04:16:01;11.10;;;8.47;;
16832;SDS011;8533;48.426;10.868;2022-07-22T04:18:32;12.83;;;8.80;;
16832;SDS011;8533;48.426;10.868;2022-07-22T04:20:59;12.13;;;8.97;;
16832;SDS011;8533;48.426;10.868;2022-07-22T04:23:27;11.53;;;8.60;;
16832;SDS011;8533;48.426;10.868;2022-07-22T04:25:54;12.43;;;8.90;;
16832;SDS011;8533;48.426;10.868;2022-07-22T04:28:22;13.30;;;8.77;;
16832;SDS011;8533;48.426;10.868;2022-07-22T04:30:49;11.97;;;8.50;;
16832;SDS011;8533;48.426;10.868;2022-07-22T04:33:17;12.73;;;9.23;;
16832;SDS011;8533;48.426;10.868;2022-07-22T04:35:45;12.53;;;8.80;;
16832;SDS011;8533;48.426;10.868;2022-07-22T04:38:13;11.20;;;8.20;;
16832;SDS011;8533;48.426;10.868;2022-07-22T04:40:43;12.73;;;8.57;;
16832;SDS011;8533;48.426;10.868;2022-07-22T04:43:10;13.17;;;9.33;;
16832;SDS011;8533;48.426;10.868;2022-07-22T04:45:41;14.87;;;8.83;;
16832;SDS011;8533;48.426;10.868;2022-07-22T04:48:07;13.97;;;8.43;;
16832;SDS011;8533;48.426;10.868;2022-07-22T04:50:36;15.30;;;9.57;;
16832;SDS011;8533;48.426;10.868;2022-07-22T04:53:10;14.37;;;9.30;;
16832;SDS011;8533;48.426;10.868;2022-07-22T04:55:34;13.33;;;9.00;;
16832;SDS011;8533;48.426;10.868;2022-07-22T04:58:02;14.10;;;9.00;;
16832;SDS011;8533;48.426;10.868;2022-07-22T05:00:29;19.80;;;9.90;;
16832;SDS011;8533;48.426;10.868;2022-07-22T05:02:57;13.70;;;9.30;;
16832;SDS011;8533;48.426;10.868;2022-07-22T05:05:24;11.63;;;8.23;;
16832;SDS011;8533;48.426;10.868;2022-07-22T05:07:52;14.37;;;9.57;;
16832;SDS011;8533;48.426;10.868;2022-07-22T05:10:20;13.77;;;9.23;;
16832;SDS011;8533;48.426;10.868;2022-07-22T05:12:48;12.53;;;9.07;;
16832;SDS011;8533;48.426;10.868;2022-07-22T05:15:15;13.23;;;9.00;;
16832;SDS011;8533;48.426;10.868;2022-07-22T05:17:43;13.33;;;9.73;;
16832;SDS011;8533;48.426;10.868;2022-07-22T05:20:11;14.50;;;9.67;;
16832;SDS011;8533;48.426;10.868;2022-07-22T05:22:42;13.37;;;9.63;;
16832;SDS011;8533;48.426;10.868;2022-07-22T05:25:10;13.17;;;9.50;;
16832;SDS011;8533;48.426;10.868;2022-07-22T05:27:38;14.03;;;9.43;;
16832;SDS011;8533;48.426;10.868;2022-07-22T05:30:07;15.23;;;10.40;;
16832;SDS011;8533;48.426;10.868;2022-07-22T05:32:36;18.80;;;9.50;;
16832;SDS011;8533;48.426;10.868;2022-07-22T05:35:05;16.20;;;9.90;;
16832;SDS011;8533;48.426;10.868;2022-07-22T05:37:32;15.17;;;9.73;;
16832;SDS011;8533;48.426;10.868;2022-07-22T05:40:00;18.43;;;10.23;;
16832;SDS011;8533;48.426;10.868;2022-07-22T05:42:28;16.80;;;10.17;;
16832;SDS011;8533;48.426;10.868;2022-07-22T05:44:56;15.63;;;9.83;;
16832;SDS011;8533;48.426;10.868;2022-07-22T05:47:24;15.37;;;10.47;;
16832;SDS011;8533;48.426;10.868;2022-07-22T05:49:51;16.13;;;10.43;;
16832;SDS011;8533;48.426;10.868;2022-07-22T05:52:19;16.50;;;9.43;;
16832;SDS011;8533;48.426;10.868;2022-07-22T05:54:47;12.97;;;9.77;;
16832;SDS011;8533;48.426;10.868;2022-07-22T05:57:15;13.37;;;9.70;;
16832;SDS011;8533;48.426;10.868;2022-07-22T05:59:42;18.23;;;10.43;;
16832;SDS011;8533;48.426;10.868;2022-07-22T06:02:10;14.20;;;10.27;;
16832;SDS011;8533;48.426;10.868;2022-07-22T06:04:37;18.00;;;11.53;;
16832;SDS011;8533;48.426;10.868;2022-07-22T06:07:04;16.87;;;11.03;;
16832;SDS011;8533;48.426;10.868;2022-07-22T06:09:32;14.37;;;10.13;;
16832;SDS011;8533;48.426;10.868;2022-07-22T06:11:59;16.10;;;10.43;;
16832;SDS011;8533;48.426;10.868;2022-07-22T06:14:28;23.83;;;12.03;;
16832;SDS011;8533;48.426;10.868;2022-07-22T06:16:55;19.23;;;11.37;;
16832;SDS011;8533;48.426;10.868;2022-07-22T06:19:22;15.60;;;11.00;;
16832;SDS011;8533;48.426;10.868;2022-07-22T06:21:50;16.50;;;10.47;;
16832;SDS011;8533;48.426;10.868;2022-07-22T06:24:18;18.30;;;11.60;;
16832;SDS011;8533;48.426;10.868;2022-07-22T06:26:46;15.97;;;10.30;;
16832;SDS011;8533;48.426;10.868;2022-07-22T06:29:14;17.03;;;11.57;;
16832;SDS011;8533;48.426;10.868;2022-07-22T06:31:41;20.00;;;11.80;;
16832;SDS011;8533;48.426;10.868;2022-07-22T06:34:09;17.87;;;10.87;;
16832;SDS011;8533;48.426;10.868;2022-07-22T06:36:38;14.03;;;10.23;;
16832;SDS011;8533;48.426;10.868;2022-07-22T06:39:08;14.20;;;9.53;;
16832;SDS011;8533;48.426;10.868;2022-07-22T06:41:36;15.27;;;10.30;;
16832;SDS011;8533;48.426;10.868;2022-07-22T06:44:05;19.17;;;10.80;;
16832;SDS011;8533;48.426;10.868;2022-07-22T06:46:32;16.00;;;9.70;;
16832;SDS011;8533;48.426;10.868;2022-07-22T06:48:59;15.87;;;9.90;;
16832;SDS011;8533;48.426;10.868;2022-07-22T06:51:27;19.07;;;10.10;;
16832;SDS011;8533;48.426;10.868;2022-07-22T06:53:54;15.03;;;10.03;;
16832;SDS011;8533;48.426;10.868;2022-07-22T06:56:22;14.73;;;9.93;;
16832;SDS011;8533;48.426;10.868;2022-07-22T06:58:49;12.83;;;9.20;;
16832;SDS011;8533;48.426;10.868;2022-07-22T07:01:17;13.50;;;10.00;;
16832;SDS011;8533;48.426;10.868;2022-07-22T07:03:45;12.60;;;9.43;;
16832;SDS011;8533;48.426;10.868;2022-07-22T07:06:13;15.07;;;10.53;;
16832;SDS011;8533;48.426;10.868;2022-07-22T07:08:40;13.17;;;9.30;;
16832;SDS011;8533;48.426;10.868;2022-07-22T07:11:08;12.97;;;9.30;;
16832;SDS011;8533;48.426;10.868;2022-07-22T07:13:35;12.77;;;9.50;;
16832;SDS011;8533;48.426;10.868;2022-07-22T07:16:04;13.37;;;9.43;;
16832;SDS011;8533;48.426;10.868;2022-07-22T07:18:31;13.80;;;9.20;;
16832;SDS011;8533;48.426;10.868;2022-07-22T07:20:59;14.70;;;10.10;;
16832;SDS011;8533;48.426;10.868;2022-07-22T07:23:26;13.73;;;9.37;;
16832;SDS011;8533;48.426;10.868;2022-07-22T07:25:54;14.57;;;10.07;;
16832;SDS011;8533;48.426;10.868;2022-07-22T07:28:21;12.07;;;9.23;;
16832;SDS011;8533;48.426;10.868;2022-07-22T07:30:49;14.53;;;9.23;;
16832;SDS011;8533;48.426;10.868;2022-07-22T07:33:18;14.10;;;9.70;;
16832;SDS011;8533;48.426;10.868;2022-07-22T07:35:46;12.43;;;8.97;;
16832;SDS011;8533;48.426;10.868;2022-07-22T07:38:13;12.87;;;8.23;;
16832;SDS011;8533;48.426;10.868;2022-07-22T07:40:41;16.10;;;8.00;;
16832;SDS011;8533;48.426;10.868;2022-07-22T07:43:09;11.70;;;7.90;;
16832;SDS011;8533;48.426;10.868;2022-07-22T07:45:36;11.43;;;7.90;;
16832;SDS011;8533;48.426;10.868;2022-07-22T07:48:04;11.13;;;8.10;;
16832;SDS011;8533;48.426;10.868;2022-07-22T07:50:31;10.93;;;8.40;;
16832;SDS011;8533;48.426;10.868;2022-07-22T07:52:59;11.20;;;8.20;;
16832;SDS011;8533;48.426;10.868;2022-07-22T07:55:26;12.80;;;8.17;;
16832;SDS011;8533;48.426;10.868;2022-07-22T07:57:54;12.90;;;7.90;;
16832;SDS011;8533;48.426;10.868;2022-07-22T08:00:22;13.47;;;9.33;;
16832;SDS011;8533;48.426;10.868;2022-07-22T08:05:23;11.70;;;8.00;;
16832;SDS011;8533;48.426;10.868;2022-07-22T08:07:50;9.73;;;7.57;;
16832;SDS011;8533;48.426;10.868;2022-07-22T08:10:18;8.77;;;7.30;;
16832;SDS011;8533;48.426;10.868;2022-07-22T08:12:47;8.53;;;7.03;;
16832;SDS011;8533;48.426;10.868;2022-07-22T08:15:15;8.40;;;6.93;;
16832;SDS011;8533;48.426;10.868;2022-07-22T08:17:43;7.80;;;6.97;;
16832;SDS011;8533;48.426;10.868;2022-07-22T08:20:10;8.13;;;6.63;;
16832;SDS011;8533;48.426;10.868;2022-07-22T08:22:39;8.73;;;6.87;;
16832;SDS011;8533;48.426;10.868;2022-07-22T08:25:07;9.73;;;7.50;;
16832;SDS011;8533;48.426;10.868;2022-07-22T08:27:34;9.47;;;7.37;;
16832;SDS011;8533;48.426;10.868;2022-07-22T08:30:03;9.53;;;7.70;;
16832;SDS011;8533;48.426;10.868;2022-07-22T08:32:32;12.20;;;7.60;;
16832;SDS011;8533;48.426;10.868;2022-07-22T08:35:00;9.63;;;7.30;;
16832;SDS011;8533;48.426;10.868;2022-07-22T08:37:27;10.57;;;7.93;;
16832;SDS011;8533;48.426;10.868;2022-07-22T08:39:56;9.20;;;7.73;;
16832;SDS011;8533;48.426;10.868;2022-07-22T08:42:24;9.40;;;7.57;;
16832;SDS011;8533;48.426;10.868;2022-07-22T08:44:53;10.43;;;8.00;;
16832;SDS011;8533;48.426;10.868;2022-07-22T08:47:22;10.20;;;7.77;;
16832;SDS011;8533;48.426;10.868;2022-07-22T08:49:50;8.87;;;7.67;;
16832;SDS011;8533;48.426;10.868;2022-07-22T08:52:17;9.77;;;7.60;;
16832;SDS011;8533;48.426;10.868;2022-07-22T08:54:46;12.43;;;8.30;;
16832;SDS011;8533;48.426;10.868;2022-07-22T08:57:13;8.83;;;7.27;;
16832;SDS011;8533;48.426;10.868;2022-07-22T08:59:54;9.63;;;7.83;;
16832;SDS011;8533;48.426;10.868;2022-07-22T09:02:24;10.30;;;8.00;;
16832;SDS011;8533;48.426;10.868;2022-07-22T09:04:56;11.23;;;8.87;;
16832;SDS011;8533;48.426;10.868;2022-07-22T09:07:28;9.80;;;8.30;;
16832;SDS011;8533;48.426;10.868;2022-07-22T09:09:58;11.00;;;8.47;;
16832;SDS011;8533;48.426;10.868;2022-07-22T09:12:28;10.53;;;8.60;;
16832;SDS011;8533;48.426;10.868;2022-07-22T09:14:58;10.40;;;8.70;;
16832;SDS011;8533;48.426;10.868;2022-07-22T09:22:31;13.67;;;8.57;;
16832;SDS011;8533;48.426;10.868;2022-07-22T09:33:06;9.83;;;8.07;;
16832;SDS011;8533;48.426;10.868;2022-07-22T09:35:34;10.83;;;8.83;;
16832;SDS011;8533;48.426;10.868;2022-07-22T09:38:04;9.80;;;8.50;;
16832;SDS011;8533;48.426;10.868;2022-07-22T09:40:35;11.40;;;8.13;;
16832;SDS011;8533;48.426;10.868;2022-07-22T09:43:09;11.60;;;7.80;;
16832;SDS011;8533;48.426;10.868;2022-07-22T09:45:51;9.20;;;7.73;;
16832;SDS011;8533;48.426;10.868;2022-07-22T09:48:22;10.05;;;7.80;;
16832;SDS011;8533;48.426;10.868;2022-07-22T09:50:51;9.33;;;7.80;;
16832;SDS011;8533;48.426;10.868;2022-07-22T09:53:23;10.87;;;7.40;;
16832;SDS011;8533;48.426;10.868;2022-07-22T09:55:54;11.13;;;8.30;;
16832;SDS011;8533;48.426;10.868;2022-07-22T09:58:23;9.57;;;7.77;;
16832;SDS011;8533;48.426;10.868;2022-07-22T10:00:52;8.23;;;7.30;;
16832;SDS011;8533;48.426;10.868;2022-07-22T10:03:31;9.77;;;7.70;;
16832;SDS011;8533;48.426;10.868;2022-07-22T10:08:30;9.23;;;7.87;;
16832;SDS011;8533;48.426;10.868;2022-07-22T10:11:00;8.20;;;7.00;;
16832;SDS011;8533;48.426;10.868;2022-07-22T10:13:30;7.43;;;6.47;;
16832;SDS011;8533;48.426;10.868;2022-07-22T10:15:59;8.57;;;6.77;;
16832;SDS011;8533;48.426;10.868;2022-07-22T10:18:27;7.87;;;6.70;;
16832;SDS011;8533;48.426;10.868;2022-07-22T10:21:02;8.17;;;7.03;;
16832;SDS011;8533;48.426;10.868;2022-07-22T10:26:01;9.10;;;7.00;;
16832;SDS011;8533;48.426;10.868;2022-07-22T10:28:34;9.37;;;6.37;;
16832;SDS011;8533;48.426;10.868;2022-07-22T10:31:22;6.90;;;5.47;;
16832;SDS011;8533;48.426;10.868;2022-07-22T10:33:52;6.60;;;5.60;;
16832;SDS011;8533;48.426;10.868;2022-07-22T10:36:30;7.47;;;6.07;;
16832;SDS011;8533;48.426;10.868;2022-07-22T10:41:40;7.97;;;7.17;;
16832;SDS011;8533;48.426;10.868;2022-07-22T10:44:02;9.93;;;6.90;;
16832;SDS011;8533;48.426;10.868;2022-07-22T10:46:50;8.55;;;6.50;;
16832;SDS011;8533;48.426;10.868;2022-07-22T10:49:18;8.70;;;6.47;;
16832;SDS011;8533;48.426;10.868;2022-07-22T10:55:15;11.50;;;7.90;;
16832;SDS011;8533;48.426;10.868;2022-07-22T10:57:28;8.47;;;6.87;;
16832;SDS011;8533;48.426;10.868;2022-07-22T11:02:24;8.10;;;6.60;;
16832;SDS011;8533;48.426;10.868;2022-07-22T11:04:54;9.30;;;6.93;;
16832;SDS011;8533;48.426;10.868;2022-07-22T11:07:22;7.90;;;6.70;;
16832;SDS011;8533;48.426;10.868;2022-07-22T11:09:49;7.17;;;6.40;;
16832;SDS011;8533;48.426;10.868;2022-07-22T11:12:17;7.50;;;6.80;;
16832;SDS011;8533;48.426;10.868;2022-07-22T11:14:44;6.75;;;6.05;;
16832;SDS011;8533;48.426;10.868;2022-07-22T11:17:11;6.70;;;5.90;;
16832;SDS011;8533;48.426;10.868;2022-07-22T11:19:41;6.90;;;6.20;;
16832;SDS011;8533;48.426;10.868;2022-07-22T11:22:10;8.53;;;6.30;;
16832;SDS011;8533;48.426;10.868;2022-07-22T11:24:41;6.45;;;5.85;;
16832;SDS011;8533;48.426;10.868;2022-07-22T11:27:14;7.17;;;6.10;;
16832;SDS011;8533;48.426;10.868;2022-07-22T11:29:43;6.43;;;5.57;;
16832;SDS011;8533;48.426;10.868;2022-07-22T11:32:16;6.17;;;5.57;;
16832;SDS011;8533;48.426;10.868;2022-07-22T11:34:46;6.87;;;6.10;;
16832;SDS011;8533;48.426;10.868;2022-07-22T11:37:14;7.10;;;6.40;;
16832;SDS011;8533;48.426;10.868;2022-07-22T11:39:44;7.27;;;6.20;;
16832;SDS011;8533;48.426;10.868;2022-07-22T11:42:11;7.30;;;6.40;;
16832;SDS011;8533;48.426;10.868;2022-07-22T11:44:41;7.15;;;6.05;;
16832;SDS011;8533;48.426;10.868;2022-07-22T11:47:08;6.70;;;5.90;;
16832;SDS011;8533;48.426;10.868;2022-07-22T11:49:37;6.67;;;5.40;;
16832;SDS011;8533;48.426;10.868;2022-07-22T11:52:09;6.27;;;5.67;;
16832;SDS011;8533;48.426;10.868;2022-07-22T11:54:39;6.63;;;5.73;;
16832;SDS011;8533;48.426;10.868;2022-07-22T11:57:08;6.17;;;5.57;;
16832;SDS011;8533;48.426;10.868;2022-07-22T11:59:36;6.53;;;5.80;;
16832;SDS011;8533;48.426;10.868;2022-07-22T12:02:06;6.70;;;6.00;;
16832;SDS011;8533;48.426;10.868;2022-07-22T12:04:35;7.95;;;5.80;;
16832;SDS011;8533;48.426;10.868;2022-07-22T12:07:03;6.40;;;5.70;;
16832;SDS011;8533;48.426;10.868;2022-07-22T12:09:35;7.30;;;5.60;;
16832;SDS011;8533;48.426;10.868;2022-07-22T12:24:41;6.60;;;5.80;;
16832;SDS011;8533;48.426;10.868;2022-07-22T12:44:36;5.90;;;5.30;;
16832;SDS011;8533;48.426;10.868;2022-07-22T12:49:30;8.10;;;5.50;;
16832;SDS011;8533;48.426;10.868;2022-07-22T12:52:04;5.30;;;4.80;;
16832;SDS011;8533;48.426;10.868;2022-07-22T13:06:48;5.90;;;5.20;;
16832;SDS011;8533;48.426;10.868;2022-07-22T14:08:03;5.40;;;4.90;;
16832;SDS011;8533;48.426;10.868;2022-07-22T14:15:24;6.83;;;4.67;;
16832;SDS011;8533;48.426;10.868;2022-07-22T14:17:51;5.70;;;5.10;;
16832;SDS011;8533;48.426;10.868;2022-07-22T14:20:18;5.10;;;4.60;;
16832;SDS011;8533;48.426;10.868;2022-07-22T14:22:46;7.03;;;5.10;;
16832;SDS011;8533;48.426;10.868;2022-07-22T14:25:13;6.93;;;5.07;;
16832;SDS011;8533;48.426;10.868;2022-07-22T14:27:41;5.77;;;4.90;;
16832;SDS011;8533;48.426;10.868;2022-07-22T14:30:08;5.97;;;4.83;;
16832;SDS011;8533;48.426;10.868;2022-07-22T14:32:36;6.67;;;5.73;;
16832;SDS011;8533;48.426;10.868;2022-07-22T14:35:03;6.97;;;4.97;;
16832;SDS011;8533;48.426;10.868;2022-07-22T14:37:31;6.80;;;5.10;;
16832;SDS011;8533;48.426;10.868;2022-07-22T14:39:59;5.63;;;4.37;;
16832;SDS011;8533;48.426;10.868;2022-07-22T14:42:26;7.90;;;5.10;;
16832;SDS011;8533;48.426;10.868;2022-07-22T14:44:54;6.37;;;4.80;;
16832;SDS011;8533;48.426;10.868;2022-07-22T14:47:21;6.97;;;4.90;;
16832;SDS011;8533;48.426;10.868;2022-07-22T14:49:48;5.70;;;4.50;;
16832;SDS011;8533;48.426;10.868;2022-07-22T14:52:16;5.53;;;4.87;;
16832;SDS011;8533;48.426;10.868;2022-07-22T14:54:43;6.20;;;4.60;;
16832;SDS011;8533;48.426;10.868;2022-07-22T14:57:11;6.73;;;4.90;;
16832;SDS011;8533;48.426;10.868;2022-07-22T14:59:38;6.10;;;4.70;;
16832;SDS011;8533;48.426;10.868;2022-07-22T15:02:06;5.50;;;4.63;;
16832;SDS011;8533;48.426;10.868;2022-07-22T15:04:33;4.90;;;4.40;;
16832;SDS011;8533;48.426;10.868;2022-07-22T15:07:00;5.47;;;4.57;;
16832;SDS011;8533;48.426;10.868;2022-07-22T15:09:28;5.60;;;5.00;;
16832;SDS011;8533;48.426;10.868;2022-07-22T15:11:55;5.47;;;4.80;;
16832;SDS011;8533;48.426;10.868;2022-07-22T15:14:24;7.40;;;4.70;;
16832;SDS011;8533;48.426;10.868;2022-07-22T15:16:59;8.43;;;4.43;;
16832;SDS011;8533;48.426;10.868;2022-07-22T15:21:53;5.07;;;4.43;;
16832;SDS011;8533;48.426;10.868;2022-07-22T15:24:20;5.47;;;4.93;;
16832;SDS011;8533;48.426;10.868;2022-07-22T15:26:48;5.43;;;4.87;;
16832;SDS011;8533;48.426;10.868;2022-07-22T15:29:16;5.87;;;5.07;;
16832;SDS011;8533;48.426;10.868;2022-07-22T15:31:43;6.07;;;4.97;;
16832;SDS011;8533;48.426;10.868;2022-07-22T15:34:11;9.83;;;5.20;;
16832;SDS011;8533;48.426;10.868;2022-07-22T15:36:44;8.37;;;5.33;;
16832;SDS011;8533;48.426;10.868;2022-07-22T15:39:12;4.97;;;4.50;;
16832;SDS011;8533;48.426;10.868;2022-07-22T15:41:45;4.77;;;4.20;;
16832;SDS011;8533;48.426;10.868;2022-07-22T15:44:11;6.87;;;5.07;;
16832;SDS011;8533;48.426;10.868;2022-07-22T15:46:38;6.23;;;5.00;;
16832;SDS011;8533;48.426;10.868;2022-07-22T15:49:06;7.23;;;4.43;;
16832;SDS011;8533;48.426;10.868;2022-07-22T15:51:35;5.13;;;4.63;;
16832;SDS011;8533;48.426;10.868;2022-07-22T15:54:04;5.60;;;4.97;;
16832;SDS011;8533;48.426;10.868;2022-07-22T15:56:31;6.30;;;4.90;;
16832;SDS011;8533;48.426;10.868;2022-07-22T15:58:59;7.20;;;4.80;;
16832;SDS011;8533;48.426;10.868;2022-07-22T16:01:44;5.50;;;4.70;;
16832;SDS011;8533;48.426;10.868;2022-07-22T16:04:11;5.93;;;5.10;;
16832;SDS011;8533;48.426;10.868;2022-07-22T16:06:39;5.70;;;4.80;;
16832;SDS011;8533;48.426;10.868;2022-07-22T16:09:11;5.83;;;4.83;;
16832;SDS011;8533;48.426;10.868;2022-07-22T16:11:37;4.93;;;4.43;;
16832;SDS011;8533;48.426;10.868;2022-07-22T16:14:04;7.27;;;4.63;;
16832;SDS011;8533;48.426;10.868;2022-07-22T16:16:32;5.83;;;4.77;;
16832;SDS011;8533;48.426;10.868;2022-07-22T16:18:59;5.23;;;4.63;;
16832;SDS011;8533;48.426;10.868;2022-07-22T16:21:27;6.90;;;5.07;;
16832;SDS011;8533;48.426;10.868;2022-07-22T16:23:57;7.83;;;5.20;;
16832;SDS011;8533;48.426;10.868;2022-07-22T16:26:24;5.77;;;4.87;;
16832;SDS011;8533;48.426;10.868;2022-07-22T16:28:53;6.07;;;4.43;;
16832;SDS011;8533;48.426;10.868;2022-07-22T16:31:20;5.67;;;4.60;;
16832;SDS011;8533;48.426;10.868;2022-07-22T16:33:56;7.60;;;4.90;;
16832;SDS011;8533;48.426;10.868;2022-07-22T16:36:23;5.87;;;4.50;;
16832;SDS011;8533;48.426;10.868;2022-07-22T16:38:51;5.50;;;4.50;;
16832;SDS011;8533;48.426;10.868;2022-07-22T16:41:18;6.77;;;4.63;;
16832;SDS011;8533;48.426;10.868;2022-07-22T16:43:46;6.67;;;5.27;;
16832;SDS011;8533;48.426;10.868;2022-07-22T16:46:13;7.03;;;5.03;;
16832;SDS011;8533;48.426;10.868;2022-07-22T16:48:41;5.10;;;4.60;;
16832;SDS011;8533;48.426;10.868;2022-07-22T16:51:08;7.30;;;4.70;;
16832;SDS011;8533;48.426;10.868;2022-07-22T16:53:36;5.73;;;5.07;;
16832;SDS011;8533;48.426;10.868;2022-07-22T16:56:03;5.57;;;5.03;;
16832;SDS011;8533;48.426;10.868;2022-07-22T16:58:31;5.57;;;4.90;;
16832;SDS011;8533;48.426;10.868;2022-07-22T17:00:58;7.23;;;4.63;;
16832;SDS011;8533;48.426;10.868;2022-07-22T17:03:26;5.13;;;4.63;;
16832;SDS011;8533;48.426;10.868;2022-07-22T17:05:53;5.60;;;4.67;;
16832;SDS011;8533;48.426;10.868;2022-07-22T17:08:22;7.90;;;4.83;;